createdAt,value
2022-09-06T00:01:26.082Z,4.30
2022-09-06T00:03:53.102Z,3.85
2022-09-06T00:06:20.816Z,4.25
2022-09-06T00:08:48.873Z,4.40
2022-09-06T00:11:16.742Z,3.80
2022-09-06T00:13:44.037Z,4.10
2022-09-06T00:16:16.761Z,4.00
2022-09-06T00:18:44.519Z,4.20
2022-09-06T00:21:20.323Z,4.35
2022-09-06T00:23:47.548Z,4.20
2022-09-06T00:26:14.655Z,3.90
2022-09-06T00:28:42.172Z,4.32
2022-09-06T00:31:20.466Z,3.95
2022-09-06T00:33:47.777Z,4.12
2022-09-06T00:36:14.940Z,3.97
2022-09-06T00:38:42.413Z,4.22
2022-09-06T00:41:11.208Z,4.35
2022-09-06T00:43:38.456Z,4.28
2022-09-06T00:46:07.217Z,4.28
2022-09-06T00:48:35.038Z,4.60
2022-09-06T00:51:04.146Z,4.20
2022-09-06T00:53:31.683Z,4.60
2022-09-06T00:55:58.638Z,4.70
2022-09-06T00:58:25.814Z,4.47
2022-09-06T01:00:53.001Z,4.18
2022-09-06T01:03:22.405Z,4.37
2022-09-06T01:06:18.472Z,4.10
2022-09-06T01:09:03.364Z,4.00
2022-09-06T01:11:50.222Z,4.37
2022-09-06T01:14:42.263Z,4.10
2022-09-06T01:17:21.363Z,4.18
2022-09-06T01:20:10.523Z,4.20
2022-09-06T01:23:10.023Z,4.28
2022-09-06T01:25:51.595Z,4.32
2022-09-06T01:28:23.173Z,4.57
2022-09-06T01:31:01.223Z,4.30
2022-09-06T01:33:51.969Z,4.43
2022-09-06T01:36:22.620Z,4.03
2022-09-06T01:38:49.871Z,4.78
2022-09-06T01:41:16.792Z,4.60
2022-09-06T01:43:47.396Z,4.28
2022-09-06T01:46:39.711Z,4.53
2022-09-06T01:49:48.656Z,4.75
2022-09-06T01:52:25.402Z,4.80
2022-09-06T01:55:10.557Z,5.05
2022-09-06T01:57:51.903Z,4.82
2022-09-06T02:00:20.189Z,4.30
2022-09-06T02:02:50.056Z,4.47
2022-09-06T02:05:25.599Z,4.65
2022-09-06T02:07:56.359Z,4.40
2022-09-06T02:10:28.217Z,4.57
2022-09-06T02:12:59.177Z,4.32
2022-09-06T02:15:33.500Z,4.45
2022-09-06T02:18:09.081Z,4.32
2022-09-06T02:20:41.297Z,4.50
2022-09-06T02:23:09.195Z,4.80
2022-09-06T02:25:38.991Z,3.87
2022-09-06T02:28:06.923Z,4.45
2022-09-06T02:30:40.546Z,4.80
2022-09-06T02:33:11.624Z,4.60
2022-09-06T02:35:46.965Z,5.00
2022-09-06T02:38:14.260Z,4.70
2022-09-06T02:40:41.371Z,4.75
2022-09-06T02:43:08.764Z,4.60
2022-09-06T02:45:35.976Z,3.97
2022-09-06T02:48:03.285Z,4.37
2022-09-06T02:50:30.234Z,4.65
2022-09-06T02:53:03.494Z,4.70
2022-09-06T02:55:30.490Z,4.53
2022-09-06T02:57:57.418Z,4.60
2022-09-06T03:00:25.238Z,4.90
2022-09-06T03:02:52.199Z,4.60
2022-09-06T03:05:19.352Z,4.53
2022-09-06T03:07:46.250Z,4.60
2022-09-06T03:10:13.193Z,4.80
2022-09-06T03:12:40.147Z,5.05
2022-09-06T03:15:07.504Z,4.43
2022-09-06T03:17:34.964Z,4.95
2022-09-06T03:20:01.987Z,4.82
2022-09-06T03:22:28.902Z,4.43
2022-09-06T03:24:55.862Z,4.45
2022-09-06T03:27:22.799Z,4.18
2022-09-06T03:29:49.840Z,4.82
2022-09-06T03:32:16.832Z,4.80
2022-09-06T03:34:43.757Z,4.90
2022-09-06T03:37:10.699Z,4.72
2022-09-06T03:39:37.701Z,4.70
2022-09-06T03:42:04.711Z,4.65
2022-09-06T03:44:31.707Z,5.15
2022-09-06T03:46:58.980Z,5.18
2022-09-06T03:49:26.094Z,4.93
2022-09-06T03:51:53.107Z,5.15
2022-09-06T03:54:20.048Z,4.80
2022-09-06T03:56:46.946Z,5.15
2022-09-06T03:59:13.872Z,4.72
2022-09-06T04:01:41.004Z,5.05
2022-09-06T04:04:08.001Z,4.65
2022-09-06T04:06:34.958Z,4.35
2022-09-06T04:09:01.983Z,5.00
2022-09-06T04:11:28.895Z,5.28
2022-09-06T04:13:55.815Z,5.30
2022-09-06T04:16:22.755Z,4.93
2022-09-06T04:18:49.835Z,5.65
2022-09-06T04:21:16.764Z,5.87
2022-09-06T04:23:43.665Z,5.47
2022-09-06T04:26:10.615Z,5.03
2022-09-06T04:28:37.611Z,5.03
2022-09-06T04:31:05.338Z,5.30
2022-09-06T04:33:34.442Z,6.87
2022-09-06T04:36:03.008Z,5.70
2022-09-06T04:38:31.397Z,5.93
2022-09-06T04:40:58.302Z,5.72
2022-09-06T04:43:25.398Z,5.37
2022-09-06T04:45:52.416Z,5.82
2022-09-06T04:48:19.701Z,5.90
2022-09-06T04:50:46.638Z,6.12
2022-09-06T04:53:13.665Z,6.43
2022-09-06T04:55:40.702Z,5.95
2022-09-06T04:58:07.616Z,5.30
2022-09-06T05:00:35.671Z,4.93
2022-09-06T05:03:02.667Z,4.80
2022-09-06T05:05:29.640Z,4.97
2022-09-06T05:07:57.403Z,4.72
2022-09-06T05:10:24.926Z,4.65
2022-09-06T05:12:53.559Z,4.87
2022-09-06T05:15:21.640Z,4.90
2022-09-06T05:17:48.684Z,4.60
2022-09-06T05:20:16.297Z,4.45
2022-09-06T05:22:43.259Z,4.45
2022-09-06T05:25:10.658Z,4.25
2022-09-06T05:27:37.618Z,4.57
2022-09-06T05:30:04.828Z,4.15
2022-09-06T05:32:31.791Z,4.10
2022-09-06T05:34:58.772Z,4.35
2022-09-06T05:37:25.781Z,4.05
2022-09-06T05:39:52.877Z,4.30
2022-09-06T05:42:19.902Z,4.30
2022-09-06T05:44:46.824Z,4.37
2022-09-06T05:47:13.792Z,4.32
2022-09-06T05:49:40.802Z,4.28
2022-09-06T05:52:07.792Z,4.90
2022-09-06T05:54:34.692Z,5.28
2022-09-06T05:57:02.466Z,4.80
2022-09-06T05:59:29.428Z,5.35
2022-09-06T06:01:56.398Z,5.55
2022-09-06T06:04:30.445Z,5.62
2022-09-06T06:06:57.510Z,5.68
2022-09-06T06:09:24.431Z,5.70
2022-09-06T06:11:51.388Z,5.87
2022-09-06T06:14:18.298Z,6.22
2022-09-06T06:16:45.308Z,6.32
2022-09-06T06:19:12.599Z,6.07
2022-09-06T06:21:39.541Z,6.40
2022-09-06T06:24:06.799Z,6.57
2022-09-06T06:26:35.722Z,6.68
2022-09-06T06:29:02.778Z,6.65
2022-09-06T06:31:31.187Z,6.28
2022-09-06T06:33:58.651Z,6.40
2022-09-06T06:36:30.950Z,7.00
2022-09-06T06:38:58.603Z,6.70
2022-09-06T06:41:27.577Z,7.30
2022-09-06T06:44:01.109Z,7.93
2022-09-06T06:46:31.516Z,7.15
2022-09-06T06:48:58.581Z,7.10
2022-09-06T06:51:28.453Z,7.22
2022-09-06T06:53:57.097Z,6.80
2022-09-06T06:56:28.242Z,6.87
2022-09-06T06:59:00.598Z,7.18
2022-09-06T07:01:29.114Z,7.25
2022-09-06T07:03:56.327Z,6.55
2022-09-06T07:09:10.816Z,7.10
2022-09-06T07:11:38.646Z,6.80
2022-09-06T07:14:05.667Z,7.18
2022-09-06T07:16:32.751Z,7.10
2022-09-06T07:19:00.644Z,6.60
2022-09-06T07:21:43.412Z,6.40
2022-09-06T07:24:10.731Z,7.00
2022-09-06T07:26:39.862Z,6.90
2022-09-06T07:29:08.115Z,6.70
2022-09-06T07:34:25.356Z,6.45
2022-09-06T07:36:53.908Z,6.12
2022-09-06T07:39:21.115Z,6.40
2022-09-06T07:41:48.161Z,6.07
2022-09-06T07:44:15.764Z,5.60
2022-09-06T07:46:42.824Z,5.55
2022-09-06T07:49:09.827Z,6.30
2022-09-06T07:51:36.994Z,6.25
2022-09-06T07:54:29.362Z,6.25
2022-09-06T07:56:51.752Z,6.10
2022-09-06T07:59:18.755Z,6.87
2022-09-06T08:01:50.263Z,11.12
2022-09-06T08:04:17.266Z,3.92
2022-09-06T08:09:36.183Z,4.80
2022-09-06T08:12:07.112Z,5.18
2022-09-06T08:14:34.866Z,5.05
2022-09-06T08:17:02.616Z,5.10
2022-09-06T08:19:29.684Z,4.40
2022-09-06T08:21:56.741Z,5.28
2022-09-06T08:24:23.811Z,6.60
2022-09-06T08:26:50.824Z,6.07
2022-09-06T08:29:20.053Z,5.68
2022-09-06T08:31:47.348Z,5.55
2022-09-06T08:34:15.427Z,4.85
2022-09-06T08:36:43.254Z,4.95
2022-09-06T08:39:11.032Z,5.00
2022-09-06T08:42:10.406Z,4.78
2022-09-06T08:44:57.204Z,4.65
2022-09-06T08:47:24.918Z,2.35
2022-09-06T08:49:55.801Z,2.78
2022-09-06T08:53:00.179Z,2.70
2022-09-06T08:55:46.138Z,2.80
2022-09-06T08:58:27.987Z,3.03
2022-09-06T09:01:18.981Z,2.87
2022-09-06T09:03:47.287Z,2.70
2022-09-06T09:06:14.486Z,2.50
2022-09-06T09:09:09.799Z,2.62
2022-09-06T09:11:38.143Z,2.37
2022-09-06T09:14:08.119Z,2.47
2022-09-06T09:16:35.304Z,2.50
2022-09-06T09:19:04.508Z,2.25
2022-09-06T09:21:34.297Z,2.33
2022-09-06T09:24:09.555Z,2.70
2022-09-06T09:26:59.895Z,2.50
2022-09-06T09:29:29.393Z,2.70
2022-09-06T09:31:58.286Z,2.78
2022-09-06T09:34:33.456Z,2.72
2022-09-06T09:40:01.540Z,2.50
2022-09-06T09:42:35.735Z,2.53
2022-09-06T09:45:05.944Z,2.45
2022-09-06T09:47:34.262Z,2.67
2022-09-06T09:50:01.476Z,3.78
2022-09-06T09:52:31.992Z,2.80
2022-09-06T09:55:05.804Z,2.90
2022-09-06T09:57:45.402Z,2.62
2022-09-06T10:00:14.151Z,4.62
2022-09-06T10:02:42.598Z,2.90
2022-09-06T10:05:12.305Z,3.37
2022-09-06T10:07:45.119Z,2.62
2022-09-06T10:10:15.079Z,2.80
2022-09-06T10:12:43.032Z,3.00
2022-09-06T10:15:12.317Z,3.00
2022-09-06T10:17:49.924Z,2.70
2022-09-06T10:20:20.535Z,3.70
2022-09-06T10:22:50.869Z,3.08
2022-09-06T10:25:38.287Z,2.55
2022-09-06T10:28:37.104Z,2.90
2022-09-06T10:31:52.795Z,2.80
2022-09-06T10:34:34.897Z,3.10
2022-09-06T10:37:10.616Z,2.65
2022-09-06T10:39:56.798Z,3.00
2022-09-06T10:42:26.763Z,3.20
2022-09-06T10:45:17.009Z,3.17
2022-09-06T10:47:55.160Z,2.62
2022-09-06T10:50:26.340Z,2.72
2022-09-06T10:52:53.922Z,2.80
2022-09-06T10:55:21.243Z,2.90
2022-09-06T10:58:18.036Z,2.62
2022-09-06T11:00:47.558Z,3.87
2022-09-06T11:06:20.682Z,5.25
2022-09-06T11:09:06.260Z,2.80
2022-09-06T11:11:55.896Z,3.78
2022-09-06T11:14:24.195Z,2.60
2022-09-06T11:16:59.911Z,2.90
2022-09-06T11:20:03.024Z,3.00
2022-09-06T11:22:58.841Z,3.22
2022-09-06T11:25:31.799Z,2.83
2022-09-06T11:28:00.664Z,2.97
2022-09-06T11:30:28.337Z,3.17
2022-09-06T11:33:20.744Z,3.03
2022-09-06T11:35:47.794Z,2.62
2022-09-06T11:38:14.629Z,3.00
2022-09-06T11:40:43.873Z,2.87
2022-09-06T11:43:16.878Z,3.03
2022-09-06T11:45:52.105Z,2.90
2022-09-06T11:48:24.759Z,2.87
2022-09-06T11:51:01.422Z,3.00
2022-09-06T11:53:36.395Z,3.08
2022-09-06T11:56:03.410Z,2.60
2022-09-06T11:59:06.062Z,2.60
2022-09-06T12:01:36.741Z,2.80
2022-09-06T12:04:06.835Z,2.95
2022-09-06T12:07:10.525Z,2.95
2022-09-06T12:09:42.795Z,3.03
2022-09-06T12:12:14.873Z,2.80
2022-09-06T12:14:46.996Z,2.95
2022-09-06T12:17:16.904Z,2.90
2022-09-06T12:19:52.146Z,2.87
2022-09-06T12:22:36.967Z,6.32
2022-09-06T12:25:22.944Z,3.03
2022-09-06T12:27:58.075Z,2.87
2022-09-06T12:30:37.529Z,2.70
2022-09-06T12:33:33.760Z,3.03
2022-09-06T12:36:14.157Z,2.70
2022-09-06T12:38:54.745Z,2.83
2022-09-06T12:41:22.728Z,2.80
2022-09-06T12:43:50.266Z,2.87
2022-09-06T12:46:17.624Z,2.72
2022-09-06T12:49:06.969Z,2.90
2022-09-06T12:51:34.904Z,2.65
2022-09-06T12:54:15.736Z,2.90
2022-09-06T12:56:42.732Z,2.60
2022-09-06T12:59:25.205Z,2.87
2022-09-06T13:02:05.147Z,2.72
2022-09-06T13:04:42.213Z,2.67
2022-09-06T13:07:15.773Z,3.10
2022-09-06T13:09:47.333Z,2.72
2022-09-06T13:12:27.531Z,2.62
2022-09-06T13:14:55.767Z,2.60
2022-09-06T13:17:24.692Z,2.75
2022-09-06T13:19:51.643Z,3.12
2022-09-06T13:22:39.045Z,2.70
2022-09-06T13:25:06.634Z,3.10
2022-09-06T13:27:38.644Z,2.70
2022-09-06T13:30:09.971Z,2.72
2022-09-06T13:32:45.902Z,3.10
2022-09-06T13:35:26.475Z,2.90
2022-09-06T13:37:53.356Z,3.00
2022-09-06T13:41:09.757Z,2.53
2022-09-06T13:43:42.440Z,2.95
2022-09-06T13:46:11.119Z,2.85
2022-09-06T13:48:39.520Z,2.95
2022-09-06T13:51:07.963Z,2.92
2022-09-06T13:53:35.515Z,2.87
2022-09-06T13:56:03.265Z,3.00
2022-09-06T13:58:30.434Z,2.80
2022-09-06T14:00:57.512Z,3.15
2022-09-06T14:03:27.813Z,3.10
2022-09-06T14:05:54.760Z,2.97
2022-09-06T14:08:21.726Z,3.03
2022-09-06T14:10:48.932Z,2.70
2022-09-06T14:13:16.926Z,3.00
2022-09-06T14:15:43.910Z,3.10
2022-09-06T14:18:14.312Z,2.90
2022-09-06T14:20:42.131Z,2.92
2022-09-06T14:23:09.518Z,2.87
2022-09-06T14:25:37.394Z,2.72
2022-09-06T14:28:05.066Z,2.95
2022-09-06T14:30:32.345Z,3.00
2022-09-06T14:32:59.502Z,3.30
2022-09-06T14:35:28.164Z,2.97
2022-09-06T14:37:55.132Z,3.22
2022-09-06T14:40:22.166Z,2.83
2022-09-06T14:42:51.625Z,3.05
2022-09-06T14:45:25.965Z,2.97
2022-09-06T14:47:53.109Z,3.05
2022-09-06T14:50:20.072Z,3.30
2022-09-06T14:52:47.029Z,3.12
2022-09-06T14:55:16.018Z,3.05
2022-09-06T14:57:43.229Z,3.00
2022-09-06T15:00:11.392Z,3.30
2022-09-06T15:02:38.500Z,3.10
2022-09-06T15:05:19.846Z,3.33
2022-09-06T15:07:46.956Z,2.90
2022-09-06T15:10:14.034Z,3.50
2022-09-06T15:12:41.027Z,3.00
2022-09-06T15:15:09.419Z,3.17
2022-09-06T15:17:36.858Z,3.30
2022-09-06T15:20:04.499Z,2.83
2022-09-06T15:22:31.420Z,3.20
2022-09-06T15:24:58.338Z,3.12
2022-09-06T15:27:25.365Z,3.10
2022-09-06T15:29:52.306Z,3.00
2022-09-06T15:32:19.252Z,3.20
2022-09-06T15:34:56.338Z,3.00
2022-09-06T15:37:23.314Z,3.37
2022-09-06T15:39:50.321Z,3.45
2022-09-06T15:42:17.274Z,3.08
2022-09-06T15:44:51.520Z,3.25
2022-09-06T15:47:20.309Z,3.10
2022-09-06T15:49:47.212Z,3.10
2022-09-06T15:52:14.141Z,3.37
2022-09-06T15:54:59.752Z,2.83
2022-09-06T15:57:26.761Z,2.80
2022-09-06T15:59:53.719Z,2.85
2022-09-06T16:02:20.720Z,3.15
2022-09-06T16:04:47.728Z,3.10
2022-09-06T16:07:14.767Z,3.10
2022-09-06T16:09:41.685Z,3.17
2022-09-06T16:12:09.411Z,2.95
2022-09-06T16:14:47.545Z,3.87
2022-09-06T16:17:14.493Z,3.10
2022-09-06T16:19:41.604Z,3.03
2022-09-06T16:22:08.724Z,3.17
2022-09-06T16:24:35.656Z,3.20
2022-09-06T16:27:02.847Z,3.20
2022-09-06T16:29:29.847Z,3.05
2022-09-06T16:31:59.964Z,3.22
2022-09-06T16:34:27.601Z,3.10
2022-09-06T16:36:55.722Z,3.00
2022-09-06T16:39:23.299Z,3.05
2022-09-06T16:41:50.261Z,2.97
2022-09-06T16:44:19.474Z,3.22
2022-09-06T16:46:48.813Z,3.28
2022-09-06T16:49:19.615Z,3.25
2022-09-06T16:51:48.611Z,3.45
2022-09-06T16:54:21.695Z,3.70
2022-09-06T16:56:48.768Z,3.10
2022-09-06T16:59:17.417Z,3.42
2022-09-06T17:01:45.425Z,3.22
2022-09-06T17:04:20.675Z,3.62
2022-09-06T17:06:47.659Z,3.40
2022-09-06T17:09:17.857Z,3.60
2022-09-06T17:11:45.188Z,3.70
2022-09-06T17:14:13.207Z,3.97
2022-09-06T17:16:58.791Z,3.80
2022-09-06T17:19:25.935Z,3.78
2022-09-06T17:21:52.885Z,4.20
2022-09-06T17:24:20.052Z,4.35
2022-09-06T17:26:47.035Z,4.37
2022-09-06T17:29:14.012Z,4.30
2022-09-06T17:31:40.977Z,4.00
2022-09-06T17:34:18.073Z,4.55
2022-09-06T17:36:45.053Z,4.57
2022-09-06T17:39:14.653Z,4.57
2022-09-06T17:41:45.853Z,4.80
2022-09-06T17:44:18.687Z,4.82
2022-09-06T17:47:09.005Z,4.80
2022-09-06T17:49:33.905Z,4.40
2022-09-06T17:52:00.802Z,4.37
2022-09-06T17:54:32.027Z,4.70
2022-09-06T17:56:59.045Z,4.70
2022-09-06T17:59:25.964Z,4.28
2022-09-06T18:01:52.990Z,4.70
2022-09-06T18:04:20.015Z,4.62
2022-09-06T18:06:47.762Z,4.93
2022-09-06T18:09:17.710Z,5.70
2022-09-06T18:11:48.300Z,5.05
2022-09-06T18:14:21.150Z,3.97
2022-09-06T18:16:49.610Z,4.00
2022-09-06T18:19:17.816Z,4.12
2022-09-06T18:21:45.193Z,4.12
2022-09-06T18:24:14.066Z,4.10
2022-09-06T18:26:41.786Z,4.05
2022-09-06T18:29:12.137Z,4.32
2022-09-06T18:31:39.889Z,4.47
2022-09-06T18:34:08.985Z,4.35
2022-09-06T18:36:36.002Z,4.60
2022-09-06T18:39:04.392Z,4.62
2022-09-06T18:41:51.086Z,5.00
2022-09-06T18:44:32.555Z,4.40
2022-09-06T18:47:02.303Z,4.80
2022-09-06T18:49:30.271Z,4.75
2022-09-06T18:51:57.230Z,5.20
2022-09-06T18:54:35.209Z,4.90
2022-09-06T18:57:02.165Z,4.70
2022-09-06T18:59:29.174Z,4.93
2022-09-06T19:01:56.331Z,4.80
2022-09-06T19:04:23.374Z,4.95
2022-09-06T19:06:50.329Z,4.78
2022-09-06T19:09:17.824Z,4.85
2022-09-06T19:11:47.134Z,4.57
2022-09-06T19:14:29.281Z,4.90
2022-09-06T19:16:56.215Z,4.30
2022-09-06T19:19:23.433Z,4.43
2022-09-06T19:21:50.414Z,4.85
2022-09-06T19:24:17.432Z,4.78
2022-09-06T19:26:45.074Z,4.55
2022-09-06T19:29:17.289Z,4.57
2022-09-06T19:31:45.325Z,4.90
2022-09-06T19:34:13.761Z,5.00
2022-09-06T19:36:40.952Z,4.97
2022-09-06T19:39:10.258Z,4.87
2022-09-06T19:41:39.114Z,4.95
2022-09-06T19:44:08.721Z,5.10
2022-09-06T19:46:36.307Z,5.00
2022-09-06T19:49:03.617Z,4.97
2022-09-06T19:51:30.729Z,5.32
2022-09-06T19:54:00.293Z,4.53
2022-09-06T19:56:32.807Z,4.75
2022-09-06T19:59:02.102Z,5.12
2022-09-06T20:01:32.990Z,5.30
2022-09-06T20:04:03.579Z,5.00
2022-09-06T20:06:31.448Z,4.70
2022-09-06T20:08:59.554Z,5.37
2022-09-06T20:11:30.816Z,5.00
2022-09-06T20:14:05.871Z,4.72
2022-09-06T20:16:33.125Z,5.00
2022-09-06T20:19:00.556Z,5.65
2022-09-06T20:21:28.731Z,6.10
2022-09-06T20:23:57.462Z,5.70
2022-09-06T20:26:26.084Z,5.60
2022-09-06T20:28:58.132Z,5.20
2022-09-06T20:31:25.692Z,5.85
2022-09-06T20:33:52.897Z,4.93
2022-09-06T20:36:19.985Z,4.75
2022-09-06T20:38:47.878Z,5.00
2022-09-06T20:41:17.082Z,5.18
2022-09-06T20:43:50.392Z,5.12
2022-09-06T20:46:19.106Z,4.75
2022-09-06T20:48:46.770Z,5.12
2022-09-06T20:51:16.083Z,4.80
2022-09-06T20:53:44.041Z,5.05
2022-09-06T20:56:13.419Z,5.85
2022-09-06T20:58:40.984Z,5.60
2022-09-06T21:01:10.260Z,5.37
2022-09-06T21:03:39.400Z,5.35
2022-09-06T21:06:11.270Z,5.65
2022-09-06T21:08:42.639Z,5.65
2022-09-06T21:11:10.214Z,5.37
2022-09-06T21:13:37.582Z,5.05
2022-09-06T21:16:05.508Z,5.30
2022-09-06T21:18:33.491Z,5.60
2022-09-06T21:21:02.456Z,5.50
2022-09-06T21:23:30.829Z,5.25
2022-09-06T21:26:02.854Z,5.47
2022-09-06T21:28:32.562Z,5.20
2022-09-06T21:31:04.250Z,5.62
2022-09-06T21:33:33.318Z,5.72
2022-09-06T21:36:07.148Z,5.80
2022-09-06T21:38:34.681Z,5.53
2022-09-06T21:41:02.177Z,5.90
2022-09-06T21:43:29.393Z,5.75
2022-09-06T21:45:58.199Z,5.30
2022-09-06T21:48:25.133Z,6.00
2022-09-06T21:50:52.208Z,5.72
2022-09-06T21:53:19.849Z,5.45
2022-09-06T21:55:46.820Z,5.78
2022-09-06T21:58:13.969Z,5.80
2022-09-06T22:00:41.634Z,6.10
2022-09-06T22:03:09.322Z,5.47
2022-09-06T22:05:38.405Z,6.20
2022-09-06T22:08:05.321Z,5.50
2022-09-06T22:10:32.370Z,5.80
2022-09-06T22:12:59.330Z,6.30
2022-09-06T22:15:26.328Z,5.80
2022-09-06T22:17:53.273Z,6.10
2022-09-06T22:20:21.173Z,5.72
2022-09-06T22:22:48.978Z,5.75
2022-09-06T22:25:16.064Z,5.47
2022-09-06T22:27:43.038Z,5.75
2022-09-06T22:30:10.439Z,5.35
2022-09-06T22:32:37.423Z,5.70
2022-09-06T22:35:06.216Z,5.30
2022-09-06T22:37:36.710Z,5.10
2022-09-06T22:40:04.888Z,5.37
2022-09-06T22:42:31.867Z,5.43
2022-09-06T22:44:58.791Z,5.62
2022-09-06T22:47:25.705Z,6.10
2022-09-06T22:49:52.642Z,6.45
2022-09-06T22:52:19.529Z,6.00
2022-09-06T22:54:47.484Z,6.20
2022-09-06T22:57:14.453Z,6.45
2022-09-06T22:59:41.395Z,5.37
2022-09-06T23:02:08.367Z,6.00
2022-09-06T23:04:36.390Z,5.65
2022-09-06T23:07:03.806Z,5.15
2022-09-06T23:09:30.735Z,5.82
2022-09-06T23:11:57.658Z,5.82
2022-09-06T23:15:05.802Z,6.25
2022-09-06T23:17:33.010Z,6.25
2022-09-06T23:20:00.022Z,6.28
2022-09-06T23:22:26.983Z,6.32
2022-09-06T23:24:53.912Z,5.85
2022-09-06T23:27:20.862Z,5.70
2022-09-06T23:29:47.768Z,5.95
2022-09-06T23:32:15.228Z,6.15
2022-09-06T23:34:49.033Z,6.07
2022-09-06T23:37:16.037Z,6.30
2022-09-06T23:39:43.020Z,5.90
2022-09-06T23:42:10.030Z,5.87
2022-09-06T23:44:36.964Z,6.07
2022-09-06T23:47:03.927Z,6.03
2022-09-06T23:49:30.870Z,6.47
2022-09-06T23:51:57.856Z,6.15
2022-09-06T23:54:26.793Z,6.07
2022-09-06T23:56:53.852Z,6.45
2022-09-06T23:59:20.762Z,6.32
